createdAt,value
2022-12-24T00:03:09.554Z,994.833
2022-12-24T00:23:07.539Z,995.06
2022-12-24T00:43:07.285Z,995.246
2022-12-24T01:03:08.910Z,995.566
2022-12-24T01:23:07.885Z,995.979
2022-12-24T01:43:07.936Z,996.212
2022-12-24T02:03:09.475Z,996.538
2022-12-24T02:23:07.406Z,996.801
2022-12-24T02:43:07.197Z,996.957
2022-12-24T03:03:09.619Z,997.403
2022-12-24T03:23:07.505Z,997.757
2022-12-24T03:43:07.387Z,998.037
2022-12-24T04:03:08.643Z,998.09
2022-12-24T04:23:07.664Z,998.369
2022-12-24T04:43:07.640Z,998.595
2022-12-24T05:03:08.829Z,998.732
2022-12-24T05:23:07.731Z,998.958
2022-12-24T05:43:08.048Z,999.141
2022-12-24T06:03:09.004Z,999.318
2022-12-24T06:23:08.093Z,999.372
2022-12-24T06:43:07.963Z,999.475
2022-12-24T07:03:08.838Z,999.665
2022-12-24T07:23:07.909Z,999.913
2022-12-24T07:43:07.900Z,1000.16
2022-12-24T08:03:09.176Z,1000.358
2022-12-24T08:23:08.164Z,1000.663
2022-12-24T08:43:08.148Z,1000.947
2022-12-24T09:03:09.215Z,1001.144
2022-12-24T09:23:07.339Z,1001.436
2022-12-24T09:43:07.365Z,1001.865
2022-12-24T10:03:08.425Z,1002.115
2022-12-24T10:23:07.382Z,1002.331
2022-12-24T10:43:07.373Z,1002.342
2022-12-24T11:03:08.905Z,1002.452
2022-12-24T11:23:08.034Z,1002.534
2022-12-24T11:43:15.576Z,1002.42
2022-12-24T12:03:08.720Z,1002.523
2022-12-24T12:23:07.803Z,1002.593
2022-12-24T12:43:15.138Z,1002.757
2022-12-24T13:03:09.761Z,1002.975
2022-12-24T13:23:07.869Z,1003.172
2022-12-24T13:43:07.906Z,1003.42
2022-12-24T14:03:09.248Z,1003.674
2022-12-24T14:23:07.175Z,1003.858
2022-12-24T14:43:07.253Z,1004.028
2022-12-24T15:03:08.436Z,1004.388
2022-12-24T15:23:07.355Z,1004.683
2022-12-24T15:43:07.411Z,1004.758
2022-12-24T16:03:09.413Z,1005.022
2022-12-24T16:23:07.578Z,1005.342
2022-12-24T16:43:07.648Z,1005.457
2022-12-24T17:03:09.087Z,1005.668
2022-12-24T17:23:08.100Z,1005.794
2022-12-24T17:43:07.218Z,1005.916
2022-12-24T18:03:08.610Z,1006.005
2022-12-24T18:23:07.632Z,1006.181
2022-12-24T18:43:07.827Z,1006.21
2022-12-24T19:03:09.439Z,1006.088
2022-12-24T19:23:07.385Z,1006.384
2022-12-24T19:43:07.580Z,1006.431
2022-12-24T20:03:09.060Z,1006.478
2022-12-24T20:23:08.166Z,1006.415
2022-12-24T20:43:07.362Z,1006.492
2022-12-24T21:03:08.795Z,1006.652
2022-12-24T21:23:07.739Z,1006.8
2022-12-24T21:43:08.029Z,1006.755
2022-12-24T22:03:09.320Z,1006.706
2022-12-24T22:23:07.415Z,1006.661
2022-12-24T22:43:07.578Z,1006.555
2022-12-24T23:03:08.725Z,1006.391
2022-12-24T23:23:07.605Z,1006.128
2022-12-24T23:43:07.450Z,1006.015
